イルクーツク の空港の天気 - METARとTAF

イルクーツク国際空港 ( UIII / IKT ) - ロシア イルクーツク
飛行場実況気象(Metar)
観測時間10/18 11:30 IRKT (10/18 03:30 UTC)
風向・風速南南西 2m/s
視程10km以上
天気現象
なし
気温9℃
湿度66%
気圧1018hPa
METARUIII 180330Z 20002MPS 150V240 CAVOK 09/03 Q1018 R30/60D NOSIG RMK QFE719/0959
過去の天気等 Google飛行場航空写真 Wunderground天気予報

過去48時間のMETAR

飛行場予報(TAF)
発表時間: 10/18 10:00 IRKT (10/18 02:00 UTC)
予報対象時間: 18日11時 IRKT ~ 19日11時 IRKT
風向・風速南南東 5m/s
視程10km以上
なし
TAF UIII 180200Z 1803/1903 16005MPS CAVOK